sensor_id;sensor_type;location;lat;lon;timestamp;P1;durP1;ratioP1;P2;durP2;ratioP2
20344;SDS011;10330;48.816;9.278;2024-01-15T00:00:53;19.10;;;7.83;;
20344;SDS011;10330;48.816;9.278;2024-01-15T00:03:20;17.57;;;6.80;;
20344;SDS011;10330;48.816;9.278;2024-01-15T00:05:46;21.63;;;8.77;;
20344;SDS011;10330;48.816;9.278;2024-01-15T00:08:18;21.37;;;8.30;;
20344;SDS011;10330;48.816;9.278;2024-01-15T00:10:44;25.40;;;8.23;;
20344;SDS011;10330;48.816;9.278;2024-01-15T00:13:20;21.47;;;7.83;;
20344;SDS011;10330;48.816;9.278;2024-01-15T00:15:46;22.87;;;8.43;;
20344;SDS011;10330;48.816;9.278;2024-01-15T00:18:28;23.07;;;8.67;;
20344;SDS011;10330;48.816;9.278;2024-01-15T00:21:00;21.40;;;8.87;;
20344;SDS011;10330;48.816;9.278;2024-01-15T00:23:30;23.23;;;7.80;;
20344;SDS011;10330;48.816;9.278;2024-01-15T00:26:06;24.90;;;8.20;;
20344;SDS011;10330;48.816;9.278;2024-01-15T00:28:32;24.37;;;8.17;;
20344;SDS011;10330;48.816;9.278;2024-01-15T00:30:59;24.03;;;7.73;;
20344;SDS011;10330;48.816;9.278;2024-01-15T00:33:28;21.07;;;7.60;;
20344;SDS011;10330;48.816;9.278;2024-01-15T00:35:54;25.80;;;9.10;;
20344;SDS011;10330;48.816;9.278;2024-01-15T00:38:21;21.60;;;7.47;;
20344;SDS011;10330;48.816;9.278;2024-01-15T00:40:47;22.90;;;7.67;;
20344;SDS011;10330;48.816;9.278;2024-01-15T00:43:16;18.00;;;8.00;;
20344;SDS011;10330;48.816;9.278;2024-01-15T00:45:44;26.53;;;8.97;;
20344;SDS011;10330;48.816;9.278;2024-01-15T00:48:11;23.20;;;8.60;;
20344;SDS011;10330;48.816;9.278;2024-01-15T00:50:37;21.83;;;7.83;;
20344;SDS011;10330;48.816;9.278;2024-01-15T00:53:04;18.43;;;7.60;;
20344;SDS011;10330;48.816;9.278;2024-01-15T00:55:30;23.50;;;8.70;;
20344;SDS011;10330;48.816;9.278;2024-01-15T00:57:57;20.03;;;8.20;;
20344;SDS011;10330;48.816;9.278;2024-01-15T01:00:26;30.60;;;10.03;;
20344;SDS011;10330;48.816;9.278;2024-01-15T01:02:52;24.77;;;8.90;;
20344;SDS011;10330;48.816;9.278;2024-01-15T01:05:19;24.80;;;8.60;;
20344;SDS011;10330;48.816;9.278;2024-01-15T01:07:48;38.57;;;11.53;;
20344;SDS011;10330;48.816;9.278;2024-01-15T01:10:14;28.90;;;11.53;;
20344;SDS011;10330;48.816;9.278;2024-01-15T01:12:41;33.43;;;12.23;;
20344;SDS011;10330;48.816;9.278;2024-01-15T01:15:07;33.93;;;11.13;;
20344;SDS011;10330;48.816;9.278;2024-01-15T01:17:34;38.03;;;13.37;;
20344;SDS011;10330;48.816;9.278;2024-01-15T01:20:00;37.10;;;13.03;;
20344;SDS011;10330;48.816;9.278;2024-01-15T01:22:30;30.17;;;11.63;;
20344;SDS011;10330;48.816;9.278;2024-01-15T01:24:56;41.03;;;13.87;;
20344;SDS011;10330;48.816;9.278;2024-01-15T01:27:25;43.70;;;13.70;;
20344;SDS011;10330;48.816;9.278;2024-01-15T01:29:52;35.00;;;13.80;;
20344;SDS011;10330;48.816;9.278;2024-01-15T01:32:18;39.70;;;14.43;;
20344;SDS011;10330;48.816;9.278;2024-01-15T01:34:45;36.37;;;13.60;;
20344;SDS011;10330;48.816;9.278;2024-01-15T01:37:11;43.53;;;13.13;;
20344;SDS011;10330;48.816;9.278;2024-01-15T01:39:39;38.60;;;13.60;;
20344;SDS011;10330;48.816;9.278;2024-01-15T01:42:07;34.83;;;12.70;;
20344;SDS011;10330;48.816;9.278;2024-01-15T01:44:33;35.03;;;13.30;;
20344;SDS011;10330;48.816;9.278;2024-01-15T01:46:59;31.87;;;12.60;;
20344;SDS011;10330;48.816;9.278;2024-01-15T01:49:32;39.30;;;13.40;;
20344;SDS011;10330;48.816;9.278;2024-01-15T01:52:01;32.07;;;12.47;;
20344;SDS011;10330;48.816;9.278;2024-01-15T01:54:31;41.10;;;12.70;;
20344;SDS011;10330;48.816;9.278;2024-01-15T01:56:58;29.43;;;10.83;;
20344;SDS011;10330;48.816;9.278;2024-01-15T01:59:27;27.60;;;8.97;;
20344;SDS011;10330;48.816;9.278;2024-01-15T02:01:55;24.40;;;8.43;;
20344;SDS011;10330;48.816;9.278;2024-01-15T02:04:21;20.27;;;7.63;;
20344;SDS011;10330;48.816;9.278;2024-01-15T02:06:49;22.43;;;7.67;;
20344;SDS011;10330;48.816;9.278;2024-01-15T02:09:17;18.23;;;7.07;;
20344;SDS011;10330;48.816;9.278;2024-01-15T02:11:47;21.23;;;7.67;;
20344;SDS011;10330;48.816;9.278;2024-01-15T02:14:14;20.30;;;7.15;;
20344;SDS011;10330;48.816;9.278;2024-01-15T02:20:42;20.02;;;7.28;;
20344;SDS011;10330;48.816;9.278;2024-01-15T02:23:13;14.03;;;6.20;;
20344;SDS011;10330;48.816;9.278;2024-01-15T02:25:51;15.18;;;5.65;;
20344;SDS011;10330;48.816;9.278;2024-01-15T02:31:56;21.17;;;6.97;;
20344;SDS011;10330;48.816;9.278;2024-01-15T02:34:23;20.10;;;6.65;;
20344;SDS011;10330;48.816;9.278;2024-01-15T02:36:54;20.97;;;7.10;;
20344;SDS011;10330;48.816;9.278;2024-01-15T02:42:16;15.37;;;6.17;;
20344;SDS011;10330;48.816;9.278;2024-01-15T02:44:42;20.47;;;7.37;;
20344;SDS011;10330;48.816;9.278;2024-01-15T02:47:08;17.70;;;7.23;;
20344;SDS011;10330;48.816;9.278;2024-01-15T02:49:35;16.87;;;7.37;;
20344;SDS011;10330;48.816;9.278;2024-01-15T02:52:02;25.90;;;8.13;;
20344;SDS011;10330;48.816;9.278;2024-01-15T02:54:29;20.10;;;6.90;;
20344;SDS011;10330;48.816;9.278;2024-01-15T02:56:55;21.10;;;7.27;;
20344;SDS011;10330;48.816;9.278;2024-01-15T02:59:22;22.03;;;7.30;;
20344;SDS011;10330;48.816;9.278;2024-01-15T03:01:48;23.43;;;7.00;;
20344;SDS011;10330;48.816;9.278;2024-01-15T03:04:14;18.67;;;7.10;;
20344;SDS011;10330;48.816;9.278;2024-01-15T03:10:12;22.17;;;7.37;;
20344;SDS011;10330;48.816;9.278;2024-01-15T03:12:38;17.83;;;6.50;;
20344;SDS011;10330;48.816;9.278;2024-01-15T03:15:07;26.35;;;7.80;;
20344;SDS011;10330;48.816;9.278;2024-01-15T03:17:37;19.97;;;7.80;;
20344;SDS011;10330;48.816;9.278;2024-01-15T03:20:03;19.53;;;6.93;;
20344;SDS011;10330;48.816;9.278;2024-01-15T03:22:30;17.67;;;7.20;;
20344;SDS011;10330;48.816;9.278;2024-01-15T03:25:05;20.67;;;6.75;;
20344;SDS011;10330;48.816;9.278;2024-01-15T03:27:33;16.57;;;6.07;;
20344;SDS011;10330;48.816;9.278;2024-01-15T03:29:59;17.97;;;6.73;;
20344;SDS011;10330;48.816;9.278;2024-01-15T03:32:26;19.97;;;6.90;;
20344;SDS011;10330;48.816;9.278;2024-01-15T03:34:53;19.47;;;6.77;;
20344;SDS011;10330;48.816;9.278;2024-01-15T03:37:19;16.00;;;6.63;;
20344;SDS011;10330;48.816;9.278;2024-01-15T03:39:49;19.80;;;7.00;;
20344;SDS011;10330;48.816;9.278;2024-01-15T03:42:16;19.97;;;7.83;;
20344;SDS011;10330;48.816;9.278;2024-01-15T03:44:42;25.63;;;7.27;;
20344;SDS011;10330;48.816;9.278;2024-01-15T03:47:17;17.47;;;6.37;;
20344;SDS011;10330;48.816;9.278;2024-01-15T03:49:48;28.47;;;7.23;;
20344;SDS011;10330;48.816;9.278;2024-01-15T03:52:18;25.57;;;7.50;;
20344;SDS011;10330;48.816;9.278;2024-01-15T03:54:45;13.97;;;6.70;;
20344;SDS011;10330;48.816;9.278;2024-01-15T03:57:17;17.53;;;7.10;;
20344;SDS011;10330;48.816;9.278;2024-01-15T03:59:43;19.73;;;6.73;;
20344;SDS011;10330;48.816;9.278;2024-01-15T04:02:37;17.10;;;6.47;;
20344;SDS011;10330;48.816;9.278;2024-01-15T04:05:07;20.30;;;7.93;;
20344;SDS011;10330;48.816;9.278;2024-01-15T04:08:15;18.47;;;7.33;;
20344;SDS011;10330;48.816;9.278;2024-01-15T04:10:41;19.73;;;6.80;;
20344;SDS011;10330;48.816;9.278;2024-01-15T04:13:08;18.03;;;7.00;;
20344;SDS011;10330;48.816;9.278;2024-01-15T04:15:34;24.00;;;7.57;;
20344;SDS011;10330;48.816;9.278;2024-01-15T04:18:02;18.27;;;6.75;;
20344;SDS011;10330;48.816;9.278;2024-01-15T04:20:29;19.47;;;7.37;;
20344;SDS011;10330;48.816;9.278;2024-01-15T04:22:55;18.30;;;7.07;;
20344;SDS011;10330;48.816;9.278;2024-01-15T04:25:21;22.83;;;6.20;;
20344;SDS011;10330;48.816;9.278;2024-01-15T04:27:48;18.07;;;7.43;;
20344;SDS011;10330;48.816;9.278;2024-01-15T04:30:14;19.93;;;6.80;;
20344;SDS011;10330;48.816;9.278;2024-01-15T04:32:41;20.00;;;7.73;;
20344;SDS011;10330;48.816;9.278;2024-01-15T04:35:07;17.33;;;6.93;;
20344;SDS011;10330;48.816;9.278;2024-01-15T04:37:33;17.27;;;6.60;;
20344;SDS011;10330;48.816;9.278;2024-01-15T04:40:02;20.97;;;8.00;;
20344;SDS011;10330;48.816;9.278;2024-01-15T04:42:29;17.53;;;5.73;;
20344;SDS011;10330;48.816;9.278;2024-01-15T04:44:59;15.47;;;6.97;;
20344;SDS011;10330;48.816;9.278;2024-01-15T04:47:25;19.20;;;6.17;;
20344;SDS011;10330;48.816;9.278;2024-01-15T04:49:52;15.87;;;6.30;;
20344;SDS011;10330;48.816;9.278;2024-01-15T04:52:18;15.57;;;6.23;;
20344;SDS011;10330;48.816;9.278;2024-01-15T04:54:44;18.23;;;6.50;;
20344;SDS011;10330;48.816;9.278;2024-01-15T04:57:11;14.90;;;6.17;;
20344;SDS011;10330;48.816;9.278;2024-01-15T04:59:37;20.73;;;6.17;;
20344;SDS011;10330;48.816;9.278;2024-01-15T05:02:05;19.97;;;6.63;;
20344;SDS011;10330;48.816;9.278;2024-01-15T05:04:36;14.60;;;5.97;;
20344;SDS011;10330;48.816;9.278;2024-01-15T05:07:03;17.95;;;6.03;;
20344;SDS011;10330;48.816;9.278;2024-01-15T05:09:29;14.50;;;6.37;;
20344;SDS011;10330;48.816;9.278;2024-01-15T05:11:55;13.82;;;5.68;;
20344;SDS011;10330;48.816;9.278;2024-01-15T05:14:27;14.10;;;5.03;;
20344;SDS011;10330;48.816;9.278;2024-01-15T05:16:54;14.70;;;6.33;;
20344;SDS011;10330;48.816;9.278;2024-01-15T05:19:22;13.17;;;5.93;;
20344;SDS011;10330;48.816;9.278;2024-01-15T05:21:49;17.23;;;6.90;;
20344;SDS011;10330;48.816;9.278;2024-01-15T05:24:18;18.03;;;6.67;;
20344;SDS011;10330;48.816;9.278;2024-01-15T05:26:45;16.13;;;6.80;;
20344;SDS011;10330;48.816;9.278;2024-01-15T05:29:11;15.73;;;5.68;;
20344;SDS011;10330;48.816;9.278;2024-01-15T05:31:38;15.07;;;6.13;;
20344;SDS011;10330;48.816;9.278;2024-01-15T05:34:13;19.07;;;6.93;;
20344;SDS011;10330;48.816;9.278;2024-01-15T05:36:40;16.47;;;5.47;;
20344;SDS011;10330;48.816;9.278;2024-01-15T05:39:13;16.50;;;6.15;;
20344;SDS011;10330;48.816;9.278;2024-01-15T05:41:40;17.65;;;6.50;;
20344;SDS011;10330;48.816;9.278;2024-01-15T05:44:06;15.93;;;6.60;;
20344;SDS011;10330;48.816;9.278;2024-01-15T05:46:32;16.48;;;5.97;;
20344;SDS011;10330;48.816;9.278;2024-01-15T05:49:01;14.37;;;5.80;;
20344;SDS011;10330;48.816;9.278;2024-01-15T05:52:01;17.37;;;6.67;;
20344;SDS011;10330;48.816;9.278;2024-01-15T05:54:27;20.27;;;6.47;;
20344;SDS011;10330;48.816;9.278;2024-01-15T05:56:54;13.45;;;5.72;;
20344;SDS011;10330;48.816;9.278;2024-01-15T05:59:20;20.70;;;6.93;;
20344;SDS011;10330;48.816;9.278;2024-01-15T06:01:55;13.97;;;6.60;;
20344;SDS011;10330;48.816;9.278;2024-01-15T06:04:24;11.93;;;6.20;;
20344;SDS011;10330;48.816;9.278;2024-01-15T06:06:50;13.23;;;5.87;;
20344;SDS011;10330;48.816;9.278;2024-01-15T06:09:20;17.98;;;6.78;;
20344;SDS011;10330;48.816;9.278;2024-01-15T06:11:46;13.45;;;6.43;;
20344;SDS011;10330;48.816;9.278;2024-01-15T06:14:13;13.35;;;5.88;;
20344;SDS011;10330;48.816;9.278;2024-01-15T06:16:41;14.63;;;5.97;;
20344;SDS011;10330;48.816;9.278;2024-01-15T06:19:08;14.18;;;5.47;;
20344;SDS011;10330;48.816;9.278;2024-01-15T06:21:34;14.07;;;6.55;;
20344;SDS011;10330;48.816;9.278;2024-01-15T06:24:01;11.18;;;4.70;;
20344;SDS011;10330;48.816;9.278;2024-01-15T06:26:27;14.63;;;5.40;;
20344;SDS011;10330;48.816;9.278;2024-01-15T06:28:54;20.80;;;7.13;;
20344;SDS011;10330;48.816;9.278;2024-01-15T06:31:33;18.65;;;7.95;;
20344;SDS011;10330;48.816;9.278;2024-01-15T06:33:59;13.38;;;5.97;;
20344;SDS011;10330;48.816;9.278;2024-01-15T06:36:26;11.27;;;5.53;;
20344;SDS011;10330;48.816;9.278;2024-01-15T06:38:52;13.70;;;5.97;;
20344;SDS011;10330;48.816;9.278;2024-01-15T06:41:23;8.63;;;4.70;;
20344;SDS011;10330;48.816;9.278;2024-01-15T06:43:55;18.03;;;5.80;;
20344;SDS011;10330;48.816;9.278;2024-01-15T06:46:22;13.85;;;5.57;;
20344;SDS011;10330;48.816;9.278;2024-01-15T06:48:49;13.65;;;6.28;;
20344;SDS011;10330;48.816;9.278;2024-01-15T06:51:15;14.30;;;6.28;;
20344;SDS011;10330;48.816;9.278;2024-01-15T06:53:42;14.95;;;5.13;;
20344;SDS011;10330;48.816;9.278;2024-01-15T06:56:08;13.23;;;5.20;;
20344;SDS011;10330;48.816;9.278;2024-01-15T06:58:35;16.27;;;5.72;;
20344;SDS011;10330;48.816;9.278;2024-01-15T07:01:04;10.60;;;5.63;;
20344;SDS011;10330;48.816;9.278;2024-01-15T07:03:31;11.77;;;6.03;;
20344;SDS011;10330;48.816;9.278;2024-01-15T07:05:58;17.27;;;6.30;;
20344;SDS011;10330;48.816;9.278;2024-01-15T07:08:24;20.42;;;5.97;;
20344;SDS011;10330;48.816;9.278;2024-01-15T07:10:51;15.50;;;6.97;;
20344;SDS011;10330;48.816;9.278;2024-01-15T07:13:17;14.50;;;6.33;;
20344;SDS011;10330;48.816;9.278;2024-01-15T07:15:44;15.00;;;6.83;;
20344;SDS011;10330;48.816;9.278;2024-01-15T07:18:10;15.40;;;6.57;;
20344;SDS011;10330;48.816;9.278;2024-01-15T07:20:36;14.30;;;6.60;;
20344;SDS011;10330;48.816;9.278;2024-01-15T07:23:03;16.23;;;6.65;;
20344;SDS011;10330;48.816;9.278;2024-01-15T07:25:29;12.80;;;5.95;;
20344;SDS011;10330;48.816;9.278;2024-01-15T07:27:59;11.63;;;5.53;;
20344;SDS011;10330;48.816;9.278;2024-01-15T07:30:26;13.00;;;6.15;;
20344;SDS011;10330;48.816;9.278;2024-01-15T07:32:52;13.48;;;6.22;;
20344;SDS011;10330;48.816;9.278;2024-01-15T07:35:21;12.53;;;5.77;;
20344;SDS011;10330;48.816;9.278;2024-01-15T07:37:47;14.75;;;6.65;;
20344;SDS011;10330;48.816;9.278;2024-01-15T07:40:14;10.87;;;4.73;;
20344;SDS011;10330;48.816;9.278;2024-01-15T07:42:40;13.23;;;5.80;;
20344;SDS011;10330;48.816;9.278;2024-01-15T07:45:08;12.20;;;5.23;;
20344;SDS011;10330;48.816;9.278;2024-01-15T07:51:29;13.95;;;5.70;;
20344;SDS011;10330;48.816;9.278;2024-01-15T07:53:55;12.50;;;5.70;;
20344;SDS011;10330;48.816;9.278;2024-01-15T08:38:54;10.60;;;4.33;;
20344;SDS011;10330;48.816;9.278;2024-01-15T08:45:06;10.75;;;4.57;;
20344;SDS011;10330;48.816;9.278;2024-01-15T08:48:48;9.67;;;4.70;;
20344;SDS011;10330;48.816;9.278;2024-01-15T08:51:33;10.73;;;4.68;;
20344;SDS011;10330;48.816;9.278;2024-01-15T08:54:14;11.80;;;5.47;;
20344;SDS011;10330;48.816;9.278;2024-01-15T08:56:46;13.40;;;5.17;;
20344;SDS011;10330;48.816;9.278;2024-01-15T09:05:48;9.85;;;4.93;;
20344;SDS011;10330;48.816;9.278;2024-01-15T09:09:39;11.50;;;5.18;;
20344;SDS011;10330;48.816;9.278;2024-01-15T09:15:52;12.55;;;5.13;;
20344;SDS011;10330;48.816;9.278;2024-01-15T09:18:25;10.60;;;4.87;;
20344;SDS011;10330;48.816;9.278;2024-01-15T09:26:43;5.97;;;3.40;;
20344;SDS011;10330;48.816;9.278;2024-01-15T09:29:25;8.53;;;4.50;;
20344;SDS011;10330;48.816;9.278;2024-01-15T09:32:04;8.93;;;4.07;;
20344;SDS011;10330;48.816;9.278;2024-01-15T09:49:02;6.85;;;3.90;;
20344;SDS011;10330;48.816;9.278;2024-01-15T09:58:25;10.40;;;3.30;;
20344;SDS011;10330;48.816;9.278;2024-01-15T10:00:53;7.47;;;3.55;;
20344;SDS011;10330;48.816;9.278;2024-01-15T10:03:35;5.60;;;3.33;;
20344;SDS011;10330;48.816;9.278;2024-01-15T10:06:06;6.57;;;3.53;;
20344;SDS011;10330;48.816;9.278;2024-01-15T10:08:36;6.28;;;3.17;;
20344;SDS011;10330;48.816;9.278;2024-01-15T10:41:34;4.80;;;3.15;;
20344;SDS011;10330;48.816;9.278;2024-01-15T10:45:24;4.90;;;3.13;;
20344;SDS011;10330;48.816;9.278;2024-01-15T10:48:30;7.18;;;3.90;;
20344;SDS011;10330;48.816;9.278;2024-01-15T10:51:10;5.35;;;2.75;;
20344;SDS011;10330;48.816;9.278;2024-01-15T10:53:45;6.53;;;3.50;;
20344;SDS011;10330;48.816;9.278;2024-01-15T10:56:25;5.93;;;3.30;;
20344;SDS011;10330;48.816;9.278;2024-01-15T10:59:15;7.80;;;4.18;;
20344;SDS011;10330;48.816;9.278;2024-01-15T11:02:00;8.38;;;3.78;;
20344;SDS011;10330;48.816;9.278;2024-01-15T11:04:26;8.63;;;3.67;;
20344;SDS011;10330;48.816;9.278;2024-01-15T11:06:54;3.60;;;2.53;;
20344;SDS011;10330;48.816;9.278;2024-01-15T11:09:22;4.82;;;3.15;;
20344;SDS011;10330;48.816;9.278;2024-01-15T11:11:52;4.28;;;3.03;;
20344;SDS011;10330;48.816;9.278;2024-01-15T11:20:31;7.03;;;3.72;;
20344;SDS011;10330;48.816;9.278;2024-01-15T11:23:04;5.13;;;2.95;;
20344;SDS011;10330;48.816;9.278;2024-01-15T11:29:33;4.07;;;2.95;;
20344;SDS011;10330;48.816;9.278;2024-01-15T11:32:04;6.82;;;3.08;;
20344;SDS011;10330;48.816;9.278;2024-01-15T11:34:52;5.07;;;3.40;;
20344;SDS011;10330;48.816;9.278;2024-01-15T11:40:37;7.25;;;3.70;;
20344;SDS011;10330;48.816;9.278;2024-01-15T11:50:18;8.02;;;3.80;;
20344;SDS011;10330;48.816;9.278;2024-01-15T11:57:25;8.63;;;2.83;;
20344;SDS011;10330;48.816;9.278;2024-01-15T12:00:16;6.75;;;3.60;;
20344;SDS011;10330;48.816;9.278;2024-01-15T12:19:11;10.25;;;5.25;;
20344;SDS011;10330;48.816;9.278;2024-01-15T12:21:42;5.50;;;3.75;;
20344;SDS011;10330;48.816;9.278;2024-01-15T12:24:42;7.83;;;3.97;;
20344;SDS011;10330;48.816;9.278;2024-01-15T12:27:35;10.93;;;5.15;;
20344;SDS011;10330;48.816;9.278;2024-01-15T12:30:22;6.85;;;4.18;;
20344;SDS011;10330;48.816;9.278;2024-01-15T12:32:51;9.23;;;3.73;;
20344;SDS011;10330;48.816;9.278;2024-01-15T12:35:18;5.90;;;3.75;;
20344;SDS011;10330;48.816;9.278;2024-01-15T12:37:47;10.13;;;4.97;;
20344;SDS011;10330;48.816;9.278;2024-01-15T12:43:15;10.80;;;4.63;;
20344;SDS011;10330;48.816;9.278;2024-01-15T12:45:50;8.48;;;3.80;;
20344;SDS011;10330;48.816;9.278;2024-01-15T12:48:19;7.60;;;3.92;;
20344;SDS011;10330;48.816;9.278;2024-01-15T12:53:57;11.23;;;4.55;;
20344;SDS011;10330;48.816;9.278;2024-01-15T12:56:24;9.53;;;4.47;;
20344;SDS011;10330;48.816;9.278;2024-01-15T13:01:50;9.07;;;4.55;;
20344;SDS011;10330;48.816;9.278;2024-01-15T13:04:45;8.60;;;4.68;;
20344;SDS011;10330;48.816;9.278;2024-01-15T13:07:20;6.17;;;4.03;;
20344;SDS011;10330;48.816;9.278;2024-01-15T13:15:40;8.47;;;4.63;;
20344;SDS011;10330;48.816;9.278;2024-01-15T13:18:21;10.75;;;4.78;;
20344;SDS011;10330;48.816;9.278;2024-01-15T13:30:59;9.50;;;4.73;;
20344;SDS011;10330;48.816;9.278;2024-01-15T13:33:55;12.75;;;5.82;;
20344;SDS011;10330;48.816;9.278;2024-01-15T13:50:01;9.20;;;4.23;;
20344;SDS011;10330;48.816;9.278;2024-01-15T13:53:06;7.70;;;3.13;;
20344;SDS011;10330;48.816;9.278;2024-01-15T13:59:27;9.40;;;3.63;;
20344;SDS011;10330;48.816;9.278;2024-01-15T14:06:02;9.20;;;3.67;;
20344;SDS011;10330;48.816;9.278;2024-01-15T14:20:50;7.15;;;3.63;;
20344;SDS011;10330;48.816;9.278;2024-01-15T14:23:27;8.18;;;3.83;;
20344;SDS011;10330;48.816;9.278;2024-01-15T14:25:54;10.48;;;4.00;;
20344;SDS011;10330;48.816;9.278;2024-01-15T14:28:23;5.38;;;3.00;;
20344;SDS011;10330;48.816;9.278;2024-01-15T14:30:49;3.72;;;3.17;;
20344;SDS011;10330;48.816;9.278;2024-01-15T14:33:17;9.27;;;3.53;;
20344;SDS011;10330;48.816;9.278;2024-01-15T14:36:02;4.88;;;2.90;;
20344;SDS011;10330;48.816;9.278;2024-01-15T14:39:08;3.63;;;3.23;;
20344;SDS011;10330;48.816;9.278;2024-01-15T14:41:35;4.47;;;3.85;;
20344;SDS011;10330;48.816;9.278;2024-01-15T14:44:10;7.63;;;3.93;;
20344;SDS011;10330;48.816;9.278;2024-01-15T14:49:55;4.95;;;3.42;;
20344;SDS011;10330;48.816;9.278;2024-01-15T14:52:28;6.57;;;4.25;;
20344;SDS011;10330;48.816;9.278;2024-01-15T14:54:57;6.90;;;5.17;;
20344;SDS011;10330;48.816;9.278;2024-01-15T14:57:41;10.27;;;4.93;;
20344;SDS011;10330;48.816;9.278;2024-01-15T15:00:13;7.37;;;4.90;;
20344;SDS011;10330;48.816;9.278;2024-01-15T15:02:42;7.22;;;4.78;;
20344;SDS011;10330;48.816;9.278;2024-01-15T15:05:11;7.33;;;4.60;;
20344;SDS011;10330;48.816;9.278;2024-01-15T15:07:43;7.87;;;4.27;;
20344;SDS011;10330;48.816;9.278;2024-01-15T15:10:12;8.95;;;5.25;;
20344;SDS011;10330;48.816;9.278;2024-01-15T15:12:43;10.98;;;6.00;;
20344;SDS011;10330;48.816;9.278;2024-01-15T15:15:15;10.40;;;6.25;;
20344;SDS011;10330;48.816;9.278;2024-01-15T15:17:43;8.30;;;5.20;;
20344;SDS011;10330;48.816;9.278;2024-01-15T15:20:13;9.87;;;6.07;;
20344;SDS011;10330;48.816;9.278;2024-01-15T15:22:42;14.00;;;7.00;;
20344;SDS011;10330;48.816;9.278;2024-01-15T15:28:06;14.53;;;6.10;;
20344;SDS011;10330;48.816;9.278;2024-01-15T15:30:43;12.60;;;6.20;;
20344;SDS011;10330;48.816;9.278;2024-01-15T15:33:18;11.57;;;5.87;;
20344;SDS011;10330;48.816;9.278;2024-01-15T15:36:15;9.02;;;5.25;;
20344;SDS011;10330;48.816;9.278;2024-01-15T15:38:56;11.13;;;5.47;;
20344;SDS011;10330;48.816;9.278;2024-01-15T15:41:47;16.42;;;6.18;;
20344;SDS011;10330;48.816;9.278;2024-01-15T15:44:55;9.43;;;6.17;;
20344;SDS011;10330;48.816;9.278;2024-01-15T15:47:28;20.33;;;7.73;;
20344;SDS011;10330;48.816;9.278;2024-01-15T15:50:05;10.07;;;5.90;;
20344;SDS011;10330;48.816;9.278;2024-01-15T15:52:48;20.90;;;5.80;;
20344;SDS011;10330;48.816;9.278;2024-01-15T15:55:52;12.60;;;6.75;;
20344;SDS011;10330;48.816;9.278;2024-01-15T16:14:26;10.73;;;5.43;;
20344;SDS011;10330;48.816;9.278;2024-01-15T16:16:56;5.80;;;3.92;;
20344;SDS011;10330;48.816;9.278;2024-01-15T16:19:26;11.60;;;5.53;;
20344;SDS011;10330;48.816;9.278;2024-01-15T16:22:00;10.95;;;6.28;;
20344;SDS011;10330;48.816;9.278;2024-01-15T16:24:26;10.85;;;6.18;;
20344;SDS011;10330;48.816;9.278;2024-01-15T16:30:23;11.37;;;5.87;;
20344;SDS011;10330;48.816;9.278;2024-01-15T16:32:50;12.33;;;5.80;;
20344;SDS011;10330;48.816;9.278;2024-01-15T16:35:16;14.27;;;5.85;;
20344;SDS011;10330;48.816;9.278;2024-01-15T16:37:42;12.07;;;6.13;;
20344;SDS011;10330;48.816;9.278;2024-01-15T16:43:07;20.13;;;8.38;;
20344;SDS011;10330;48.816;9.278;2024-01-15T16:49:35;14.67;;;6.77;;
20344;SDS011;10330;48.816;9.278;2024-01-15T16:52:42;14.98;;;7.93;;
20344;SDS011;10330;48.816;9.278;2024-01-15T16:55:18;10.57;;;5.67;;
20344;SDS011;10330;48.816;9.278;2024-01-15T16:57:44;8.73;;;4.53;;
20344;SDS011;10330;48.816;9.278;2024-01-15T17:00:14;10.80;;;5.17;;
20344;SDS011;10330;48.816;9.278;2024-01-15T17:05:37;5.43;;;4.20;;
20344;SDS011;10330;48.816;9.278;2024-01-15T17:11:45;9.10;;;4.53;;
20344;SDS011;10330;48.816;9.278;2024-01-15T17:17:04;7.88;;;4.80;;
20344;SDS011;10330;48.816;9.278;2024-01-15T17:20:21;5.45;;;3.67;;
20344;SDS011;10330;48.816;9.278;2024-01-15T17:27:02;10.07;;;4.78;;
20344;SDS011;10330;48.816;9.278;2024-01-15T17:32:57;7.45;;;4.60;;
20344;SDS011;10330;48.816;9.278;2024-01-15T17:36:12;6.57;;;4.53;;
20344;SDS011;10330;48.816;9.278;2024-01-15T17:39:36;12.17;;;5.13;;
20344;SDS011;10330;48.816;9.278;2024-01-15T18:14:36;7.60;;;4.93;;
20344;SDS011;10330;48.816;9.278;2024-01-15T18:17:15;17.13;;;7.05;;
20344;SDS011;10330;48.816;9.278;2024-01-15T18:19:42;11.43;;;5.33;;
20344;SDS011;10330;48.816;9.278;2024-01-15T18:22:08;19.45;;;6.88;;
20344;SDS011;10330;48.816;9.278;2024-01-15T18:24:35;10.50;;;5.35;;
20344;SDS011;10330;48.816;9.278;2024-01-15T18:27:05;11.82;;;5.57;;
20344;SDS011;10330;48.816;9.278;2024-01-15T18:29:31;14.85;;;4.85;;
20344;SDS011;10330;48.816;9.278;2024-01-15T18:31:57;14.05;;;4.47;;
20344;SDS011;10330;48.816;9.278;2024-01-15T18:34:24;8.55;;;4.88;;
20344;SDS011;10330;48.816;9.278;2024-01-15T18:36:50;28.40;;;12.57;;
20344;SDS011;10330;48.816;9.278;2024-01-15T18:39:17;13.80;;;7.22;;
20344;SDS011;10330;48.816;9.278;2024-01-15T18:41:43;16.03;;;6.77;;
20344;SDS011;10330;48.816;9.278;2024-01-15T18:44:10;17.92;;;8.85;;
20344;SDS011;10330;48.816;9.278;2024-01-15T18:46:36;13.80;;;6.97;;
20344;SDS011;10330;48.816;9.278;2024-01-15T18:49:03;10.37;;;5.67;;
20344;SDS011;10330;48.816;9.278;2024-01-15T18:51:30;12.18;;;6.43;;
20344;SDS011;10330;48.816;9.278;2024-01-15T18:53:56;5.97;;;4.03;;
20344;SDS011;10330;48.816;9.278;2024-01-15T18:56:25;9.50;;;4.95;;
20344;SDS011;10330;48.816;9.278;2024-01-15T18:58:51;12.50;;;4.65;;
20344;SDS011;10330;48.816;9.278;2024-01-15T19:01:27;10.10;;;4.25;;
20344;SDS011;10330;48.816;9.278;2024-01-15T19:03:58;7.93;;;3.30;;
20344;SDS011;10330;48.816;9.278;2024-01-15T19:06:27;2.75;;;2.58;;
20344;SDS011;10330;48.816;9.278;2024-01-15T19:08:54;7.23;;;3.80;;
20344;SDS011;10330;48.816;9.278;2024-01-15T19:11:20;12.90;;;4.17;;
20344;SDS011;10330;48.816;9.278;2024-01-15T19:13:50;7.10;;;2.95;;
20344;SDS011;10330;48.816;9.278;2024-01-15T19:16:16;5.60;;;4.03;;
20344;SDS011;10330;48.816;9.278;2024-01-15T19:18:48;4.53;;;3.60;;
20344;SDS011;10330;48.816;9.278;2024-01-15T19:21:15;9.80;;;4.07;;
20344;SDS011;10330;48.816;9.278;2024-01-15T19:23:41;6.95;;;3.05;;
20344;SDS011;10330;48.816;9.278;2024-01-15T19:26:07;7.90;;;3.27;;
20344;SDS011;10330;48.816;9.278;2024-01-15T19:28:33;5.13;;;3.45;;
20344;SDS011;10330;48.816;9.278;2024-01-15T19:31:00;7.20;;;3.72;;
20344;SDS011;10330;48.816;9.278;2024-01-15T19:33:27;4.38;;;3.15;;
20344;SDS011;10330;48.816;9.278;2024-01-15T19:35:54;2.65;;;2.00;;
20344;SDS011;10330;48.816;9.278;2024-01-15T19:38:20;5.63;;;3.45;;
20344;SDS011;10330;48.816;9.278;2024-01-15T19:40:50;6.37;;;3.63;;
20344;SDS011;10330;48.816;9.278;2024-01-15T19:43:17;5.40;;;3.20;;
20344;SDS011;10330;48.816;9.278;2024-01-15T19:45:43;4.85;;;3.22;;
20344;SDS011;10330;48.816;9.278;2024-01-15T19:48:09;6.07;;;3.03;;
20344;SDS011;10330;48.816;9.278;2024-01-15T19:50:37;18.20;;;2.97;;
20344;SDS011;10330;48.816;9.278;2024-01-15T19:53:03;5.23;;;3.50;;
20344;SDS011;10330;48.816;9.278;2024-01-15T19:55:29;4.68;;;2.80;;
20344;SDS011;10330;48.816;9.278;2024-01-15T19:57:56;7.20;;;2.70;;
20344;SDS011;10330;48.816;9.278;2024-01-15T20:00:22;9.15;;;4.15;;
20344;SDS011;10330;48.816;9.278;2024-01-15T20:02:48;5.03;;;2.80;;
20344;SDS011;10330;48.816;9.278;2024-01-15T20:05:14;5.07;;;2.75;;
20344;SDS011;10330;48.816;9.278;2024-01-15T20:07:41;5.30;;;3.17;;
20344;SDS011;10330;48.816;9.278;2024-01-15T20:10:07;4.22;;;2.58;;
20344;SDS011;10330;48.816;9.278;2024-01-15T20:12:35;5.10;;;3.08;;
20344;SDS011;10330;48.816;9.278;2024-01-15T20:15:02;3.90;;;3.05;;
20344;SDS011;10330;48.816;9.278;2024-01-15T20:17:28;6.67;;;4.00;;